Date,TemperatureHighF,TemperatureAvgF,TemperatureLowF,DewpointHighF,DewpointAvgF,DewpointLowF,HumidityHigh,HumidityAvg,HumidityLow,PressureMaxIn,PressureMinIn,WindSpeedMaxMPH,WindSpeedAvgMPH,GustSpeedMaxMPH,PrecipitationSumIn
2012-7-5,94.3,89.3,82.9,81.6,78.3,75.0,86,70,60,29.85,29.78,6,2,10,0.46
2012-7-6,94.5,85.7,76.0,81.5,76.5,72.1,90,75,57,29.91,29.82,6,2,9,0.00
2012-7-7,83.2,78.3,71.4,77.5,69.4,65.4,89,74,66,29.96,29.83,9,5,15,0.00
2012-7-8,81.2,72.4,63.9,66.2,63.9,60.9,93,76,54,30.03,29.95,6,3,10,0.00
2012-7-9,81.1,69.0,60.9,65.8,61.1,57.8,91,77,52,30.01,29.97,5,2,6,0.00
2012-7-10,81.7,74.2,58.4,59.8,56.7,52.5,91,56,37,30.10,30.04,6,3,10,0.00
2012-7-11,84.1,72.1,55.9,61.8,56.2,52.1,90,60,39,30.16,30.06,5,2,7,0.00
2012-7-12,88.0,76.1,59.6,61.7,56.8,52.4,83,54,32,30.12,30.04,7,2,9,0.00
2012-7-13,92.1,77.4,61.6,69.1,61.8,56.0,85,61,35,30.07,29.97,8,2,11,0.00
2012-7-14,90.5,78.4,66.3,68.9,64.7,59.3,90,65,36,30.04,29.91,11,4,17,0.31
2012-7-15,88.2,77.7,69.5,75.4,71.0,67.4,93,81,55,29.96,29.86,18,2,24,0.29
2012-7-16,93.6,80.7,66.5,74.5,68.7,63.8,93,69,42,29.94,29.74,6,2,9,0.00
2012-7-17,96.4,84.1,74.3,74.7,70.9,67.4,93,66,43,29.81,29.67,12,5,15,0.09
2012-7-18,81.9,74.1,69.7,72.0,69.3,63.2,96,86,68,29.94,29.78,7,3,11,0.10
2012-7-19,71.0,67.1,64.3,64.6,63.0,60.8,95,87,76,29.98,29.86,10,5,13,0.11
2012-7-20,77.9,69.6,59.2,64.5,59.2,52.8,95,72,44,30.06,29.98,11,4,14,0.00
2012-7-21,84.8,72.2,56.7,68.0,62.0,54.4,94,72,52,30.05,29.93,8,2,13,0.00
2012-7-22,89.6,79.4,67.2,73.6,69.0,63.8,90,72,54,30.00,29.92,8,3,13,0.00
2012-7-23,93.7,83.5,72.2,74.4,70.7,65.8,85,66,51,29.94,29.72,13,4,16,0.00
2012-7-24,83.7,75.4,68.1,71.3,62.2,53.1,83,65,41,29.93,29.78,9,5,12,0.00
2012-7-25,89.3,74.8,60.7,72.9,61.0,51.7,75,63,48,29.93,29.50,10,3,14,0.00
2012-7-26,85.2,75.5,69.9,73.7,70.2,67.0,95,84,64,29.70,29.52,19,5,19,1.75
2012-7-27,75.7,69.1,65.2,69.3,65.7,62.5,95,89,78,29.91,29.69,10,4,15,0.78
2012-7-28,80.6,70.9,59.1,63.7,59.5,54.0,93,70,41,30.07,29.92,8,4,10,0.00
2012-7-29,82.6,71.9,58.4,67.5,60.5,54.2,95,70,39,30.07,29.96,5,1,6,0.00
2012-7-30,88.5,77.1,63.1,68.9,64.5,59.4,90,67,47,29.97,29.79,4,1,7,0.00
2012-7-31,82.3,73.0,63.8,70.2,65.4,61.3,94,78,59,29.89,29.73,18,4,22,0.70
2012-8-1,82.4,70.7,58.9,65.0,61.2,56.7,95,74,48,29.92,29.80,6,3,10,0.00
2012-8-2,83.4,74.2,65.1,74.1,67.4,61.2,91,80,69,29.85,29.75,7,2,11,0.03
2012-8-3,86.4,76.1,67.2,75.6,70.0,64.9,94,82,66,29.90,29.83,10,4,13,0.00
2012-8-4,88.2,78.2,66.8,75.6,70.9,65.0,95,80,60,29.91,29.72,6,2,9,0.00
2012-8-5,79.9,73.8,63.1,71.1,63.5,54.0,93,72,47,30.09,29.73,15,6,20,0.01
2012-8-6,83.9,70.5,54.9,61.8,56.9,51.3,91,65,42,30.11,29.95,5,2,10,0.00
2012-8-7,86.5,73.4,59.0,67.2,61.9,53.5,87,69,50,29.95,29.83,9,3,17,0.00
2012-8-8,80.9,71.2,58.8,65.4,59.5,55.7,91,69,43,29.97,29.90,6,2,9,0.04
2012-8-9,68.0,63.9,60.4,65.3,62.1,59.0,95,94,90,29.93,29.82,10,4,12,0.76
2012-8-10,60.7,59.0,57.7,59.6,57.6,56.0,98,95,94,29.83,29.68,15,9,21,3.48
2012-8-11,71.6,62.9,58.0,62.4,59.0,56.3,96,88,69,29.90,29.69,11,6,17,0.39
2012-8-12,76.8,67.1,58.0,61.5,58.9,55.7,93,76,53,29.95,29.89,9,4,13,0.00
2012-8-13,71.1,64.8,61.1,63.4,60.2,57.8,93,85,73,29.95,29.90,5,1,7,0.17
2012-8-14,78.3,65.8,56.8,64.5,60.7,55.4,97,85,56,29.91,29.82,9,1,9,0.02
2012-8-15,80.1,69.4,60.7,64.7,61.2,58.6,95,77,48,29.92,29.84,5,1,6,0.00
2012-8-16,76.3,68.5,63.6,68.8,63.6,60.1,92,85,74,29.88,29.64,11,2,15,0.33
2012-8-17,71.8,63.9,55.7,61.3,56.2,50.0,93,78,52,29.95,29.76,11,6,15,0.01
2012-8-18,75.3,62.6,49.7,56.8,52.2,47.1,93,71,46,30.00,29.90,9,2,10,0.00
2012-8-19,74.5,60.8,51.1,58.1,54.4,49.1,94,81,52,29.94,29.86,14,1,14,0.17
2012-8-20,73.9,61.8,49.7,58.0,51.5,44.7,97,73,43,29.96,29.90,5,1,9,0.01
2012-8-21,77.1,65.1,51.7,59.8,54.4,49.2,93,71,45,30.04,29.95,7,2,10,0.00
2012-8-22,81.5,68.1,53.9,61.3,56.9,51.3,93,70,44,30.09,30.01,4,1,6,0.00
2012-8-23,86.5,71.9,54.8,65.8,60.8,52.4,94,70,46,30.08,30.01,4,1,6,0.00
2012-8-24,86.8,74.6,61.0,67.5,62.7,57.2,90,69,45,30.06,29.98,6,2,11,0.00
2012-8-25,89.3,77.0,63.9,70.3,64.4,59.4,86,67,43,30.05,29.98,8,2,9,0.00
2012-8-26,91.3,75.8,64.1,70.6,66.2,60.5,93,74,48,30.04,29.92,8,3,11,0.05
2012-8-27,84.5,74.9,66.5,70.6,66.3,56.8,96,77,47,29.99,29.89,6,3,11,0.01
2012-8-28,78.2,68.3,58.4,60.7,58.1,55.5,91,72,50,30.07,29.99,8,4,11,0.00
2012-8-29,79.3,67.2,52.9,62.0,57.6,51.0,96,73,50,30.09,29.98,6,1,6,0.00
2012-8-30,85.3,72.6,57.0,65.6,60.4,53.5,90,67,47,30.02,29.88,6,1,10,0.00
2012-8-31,90.8,76.8,65.4,71.0,63.6,54.3,83,65,46,30.03,29.89,11,4,13,0.00
2012-9-1,77.7,68.1,57.0,65.5,59.1,53.2,87,74,50,30.10,30.02,8,3,11,0.00
2012-9-2,82.4,70.1,58.9,65.1,61.3,56.7,95,76,43,30.04,29.93,11,6,20,0.00
2012-9-3,85.6,71.8,56.0,68.0,62.3,54.3,95,74,53,29.96,29.83,5,2,9,0.00
2012-9-4,83.2,73.2,66.8,70.7,67.4,64.4,96,83,61,29.86,29.79,6,2,8,0.61
2012-9-5,84.8,74.2,65.0,73.6,67.9,62.0,96,82,64,29.83,29.68,7,1,9,0.01
2012-9-6,82.8,71.0,60.1,65.8,61.5,58.2,95,74,51,29.87,29.76,5,1,6,0.00
2012-9-7,71.0,63.4,56.8,60.2,56.9,53.3,93,80,58,29.88,29.69,11,3,14,0.16
2012-9-8,68.6,60.5,53.5,56.6,53.5,50.1,95,79,58,29.81,29.66,15,7,19,0.02
2012-9-9,70.8,60.0,49.8,53.0,49.3,45.3,95,71,42,30.08,29.81,8,3,12,0.01
2012-9-10,74.9,61.1,48.3,54.1,49.8,44.2,92,69,45,30.20,30.08,5,2,11,0.00
2012-9-11,80.6,63.2,53.0,58.3,52.8,47.3,85,71,43,30.14,30.04,5,1,7,0.00
2012-9-12,85.8,70.6,57.4,63.2,57.4,52.5,84,65,40,30.13,30.04,5,1,11,0.00
2012-9-13,78.4,65.7,55.2,65.4,58.8,52.6,92,79,63,30.25,30.10,13,3,16,0.02
2012-9-14,72.8,59.7,50.9,55.7,49.0,44.1,94,71,38,30.26,30.18,12,4,16,0.19
2012-9-15,73.2,59.5,46.4,51.6,47.7,42.8,92,67,42,30.31,30.11,6,2,8,0.00
2012-9-16,77.4,62.9,50.7,57.6,49.9,45.5,83,65,40,30.11,29.94,8,2,11,0.00
2012-9-17,79.0,64.9,53.2,58.0,53.3,48.0,85,68,47,29.96,29.62,8,1,11,0.00
2012-9-18,64.0,55.8,49.1,58.1,50.5,43.9,92,83,55,29.71,29.61,13,6,15,0.06
2012-9-19,67.5,55.9,38.8,43.3,39.7,33.8,92,58,35,30.05,29.85,10,3,13,0.00
2012-9-20,67.6,59.1,52.7,52.2,45.5,-99.9,83,64,42,29.85,29.77,11,3,13,0.09
2012-9-21,66.8,55.2,46.4,50.6,46.5,41.7,91,74,42,29.87,29.73,13,2,16,0.04
2012-9-22,58.5,50.8,45.3,48.5,44.3,40.6,94,79,56,30.04,29.66,15,6,16,0.06
2012-9-23,55.3,46.4,41.1,44.7,40.2,37.2,88,79,53,30.18,30.04,15,5,21,0.02
2012-9-24,63.4,50.1,37.7,44.6,38.8,34.8,91,68,38,30.17,29.82,10,3,13,0.00
2012-9-25,75.8,59.7,48.3,53.6,46.8,38.1,85,64,42,29.86,29.75,6,1,9,0.00
2012-9-26,68.0,57.9,50.0,52.0,48.2,41.7,93,73,39,30.14,29.84,6,2,9,0.00
2012-9-27,63.7,55.1,43.3,49.8,46.1,40.8,92,73,56,30.25,30.14,7,3,14,0.00
2012-9-28,68.7,56.5,46.2,49.0,44.5,38.2,93,67,33,30.15,30.05,7,2,11,0.00
2012-9-29,72.1,56.8,44.0,50.4,44.5,38.9,90,67,31,30.07,29.91,9,3,13,0.00
2012-9-30,62.5,52.9,44.4,50.3,46.0,40.8,96,79,58,29.97,29.92,11,4,14,0.00
2012-10-1,66.3,53.0,38.7,50.6,43.5,36.9,95,73,44,29.93,29.83,5,1,5,0.01
2012-10-2,69.3,57.5,47.9,51.7,48.3,44.8,91,73,46,29.91,29.81,8,2,15,0.00
2012-10-3,62.6,58.1,54.8,59.7,55.5,51.6,95,91,82,30.00,29.90,5,1,6,0.06
2012-10-4,75.5,64.1,57.9,60.9,57.5,53.5,96,81,48,30.00,29.91,7,2,11,0.18
2012-10-5,62.4,52.8,46.0,53.6,42.3,36.2,81,68,48,30.02,29.90,11,5,12,0.00
2012-10-6,49.9,44.8,38.9,38.0,35.4,32.4,87,70,59,30.10,29.88,12,6,15,0.00
2012-10-7,49.2,42.5,37.7,39.8,35.7,31.3,91,78,57,30.12,30.06,6,2,12,0.00
2012-10-8,56.4,43.9,32.1,36.6,31.4,28.0,89,65,36,30.16,30.03,7,2,10,0.00
2012-10-9,64.4,53.3,43.0,43.0,37.1,30.8,66,55,41,30.03,29.71,6,2,10,0.00
2012-10-10,53.7,42.5,37.5,44.1,34.4,25.5,92,74,47,30.11,29.74,18,7,24,0.16
2012-10-11,59.6,44.6,33.2,43.9,36.5,27.7,92,75,47,30.16,29.94,16,5,22,0.02
2012-10-12,50.4,41.0,32.0,39.0,30.2,23.7,92,68,35,30.44,30.16,7,3,11,0.00
2012-10-13,56.0,42.4,33.4,54.9,39.4,28.3,96,89,74,30.37,29.81,12,4,16,0.71
2012-10-14,69.1,62.0,51.8,63.6,59.9,49.0,97,93,80,29.81,29.33,15,3,21,0.94
2012-10-15,51.6,47.5,45.2,48.8,42.8,38.7,90,84,77,29.93,29.42,15,10,26,0.01
2012-10-16,58.9,47.4,35.3,43.6,39.9,33.2,94,76,52,29.95,29.67,10,3,12,0.00
2012-10-17,74.6,59.8,49.5,55.7,50.0,43.3,91,72,40,29.67,29.47,10,4,11,0.16
2012-10-18,59.2,54.1,46.7,55.6,47.8,39.7,92,80,53,29.60,29.26,20,6,22,0.53
2012-10-19,53.0,47.6,44.7,47.1,43.1,40.5,93,84,72,29.59,29.49,12,3,18,0.07
2012-10-20,55.8,48.0,45.1,48.2,44.9,43.6,96,89,71,29.87,29.54,11,3,13,0.05
2012-10-21,62.4,50.3,37.9,49.7,43.5,36.3,96,79,53,30.05,29.87,7,2,9,0.00
2012-10-22,68.7,55.1,43.1,58.8,49.5,39.7,94,82,65,30.04,29.91,7,2,9,0.44
2012-10-23,60.2,57.6,55.5,59.1,56.6,54.7,97,97,94,29.96,29.84,8,4,10,0.45
2012-10-24,75.4,64.6,55.8,65.2,60.2,55.0,98,86,68,29.97,29.88,7,1,8,0.00
2012-10-25,77.3,69.1,61.3,62.3,58.7,55.4,82,70,54,29.88,29.68,5,2,11,0.00
2012-10-26,69.6,47.5,39.6,59.9,39.7,32.7,92,75,58,30.25,29.69,16,7,25,0.08
2012-10-27,43.4,36.2,32.9,36.3,31.8,29.8,90,84,76,30.26,30.22,6,3,12,0.00
2012-10-28,47.7,41.7,32.5,34.6,30.6,26.9,86,65,46,30.26,30.17,13,7,20,0.00
2012-10-29,45.3,39.3,35.1,30.6,27.7,23.1,79,64,46,30.18,29.84,14,9,20,0.00
2012-10-30,39.7,36.9,34.7,36.7,33.0,23.4,94,86,52,29.84,29.55,16,11,23,0.39
2012-10-31,43.3,39.3,35.2,38.8,36.1,33.4,94,88,82,29.67,29.56,15,10,18,0.04
2012-11-1,47.3,41.9,37.2,37.5,34.3,30.2,90,75,59,29.78,29.65,14,10,21,0.00
2012-11-2,39.6,38.8,36.7,33.0,32.2,30.8,82,77,72,29.87,29.78,10,7,12,0.00
2012-11-3,38.6,34.9,31.9,31.3,29.9,28.5,91,82,73,30.21,30.14,5,2,9,0.00
2012-11-4,38.2,33.4,28.3,28.4,26.8,24.3,86,77,63,30.24,30.17,4,2,7,0.00
2012-11-5,37.7,32.6,25.1,29.8,27.0,22.3,93,80,68,30.25,30.17,6,2,11,0.00
2012-11-6,35.0,32.3,30.7,30.1,27.8,25.9,88,83,76,30.17,30.08,4,1,7,0.00
2012-11-7,43.9,38.0,29.9,33.9,31.5,25.7,88,78,66,30.17,30.06,8,3,10,0.00
2012-11-8,47.5,38.0,26.0,37.0,32.4,24.1,95,81,62,30.22,30.09,3,0,4,0.01
2012-11-9,40.2,39.4,38.8,36.7,35.4,35.0,92,85,83,30.13,30.10,3,1,4,0.00
2012-11-10,56.6,51.8,43.8,50.2,46.7,40.8,90,83,77,30.10,29.91,12,5,15,0.00
2012-11-11,66.1,60.5,55.8,52.1,48.7,44.1,76,65,53,29.98,29.81,10,3,19,0.00
2012-11-12,61.3,42.8,30.6,49.9,36.1,24.0,93,78,52,30.21,29.80,13,6,22,0.20
2012-11-13,36.1,31.5,26.5,24.9,22.8,21.0,80,70,56,30.53,30.21,9,3,11,0.00
2012-11-14,39.4,30.8,23.4,27.5,24.0,19.5,92,76,58,30.59,30.44,6,2,7,0.00
2012-11-15,42.4,34.3,26.5,33.3,28.7,23.4,92,80,68,30.45,30.33,4,1,5,0.00
2012-11-16,47.7,36.8,27.8,40.5,32.6,24.6,93,85,71,30.49,30.36,3,1,4,0.00
2012-11-17,51.2,37.6,27.1,42.4,31.6,25.6,97,81,52,30.59,30.49,7,1,8,0.02
2012-11-18,52.2,39.0,30.1,44.3,35.0,27.0,96,86,59,30.53,30.41,9,3,12,0.00
2012-11-19,51.9,44.5,31.1,41.7,36.7,29.5,96,75,60,30.36,30.15,5,2,6,0.00
2012-11-20,53.2,44.5,36.2,44.1,38.5,31.7,87,80,65,30.15,30.06,4,1,8,0.00
2012-11-21,54.2,46.1,33.4,46.3,41.7,31.6,96,85,72,30.21,30.07,3,1,4,0.00
2012-11-22,60.2,50.3,42.1,49.2,43.6,40.3,94,79,56,30.07,29.68,5,2,10,0.06
2012-11-23,53.8,39.2,31.7,48.9,31.7,22.4,85,74,64,29.98,29.60,24,12,27,0.00
2012-11-24,32.9,30.7,28.7,22.9,21.7,20.5,77,69,62,30.10,29.97,16,10,21,0.00
2012-11-25,34.3,29.9,26.3,29.6,25.5,21.3,92,84,72,30.00,29.81,9,2,11,0.07
2012-11-26,32.2,30.9,27.8,26.8,23.2,20.8,81,73,64,30.29,29.97,10,5,14,0.00
2012-11-27,33.8,27.6,21.7,22.8,20.0,16.4,82,73,61,30.36,30.19,8,3,11,0.00
2012-11-28,36.6,31.1,26.7,27.4,23.7,20.2,87,74,57,30.28,30.15,12,4,18,0.00
2012-11-29,46.2,37.3,26.9,34.8,30.4,23.0,87,76,62,30.24,30.13,8,2,12,0.00
2012-11-30,36.8,35.1,33.5,34.7,32.6,30.3,93,90,85,30.27,30.17,12,8,17,0.01
2012-12-1,55.9,38.3,32.2,50.2,36.0,30.1,95,92,80,30.26,29.88,10,6,13,0.01
2012-12-2,55.7,50.9,44.7,52.3,47.9,41.3,96,90,81,30.09,29.85,12,3,13,0.32
2012-12-3,61.5,51.5,39.5,58.1,49.5,37.5,97,93,87,30.09,29.76,10,3,14,0.00
2012-12-4,61.8,48.8,36.5,57.5,40.6,29.0,88,74,61,30.10,29.76,12,6,18,0.03
2012-12-5,36.3,31.2,27.1,28.9,23.1,20.5,82,72,59,30.40,30.10,13,6,18,0.00
2012-12-6,37.7,32.3,26.0,33.6,27.3,22.2,92,82,72,30.33,29.91,14,3,17,0.00
2012-12-7,45.6,40.7,37.8,40.2,37.0,33.7,92,87,77,29.94,29.89,8,2,11,0.01
2012-12-8,38.8,32.1,26.0,35.7,29.5,22.5,95,90,84,30.18,29.87,9,4,14,0.08
2012-12-9,33.2,30.3,27.7,31.0,27.7,24.9,95,90,85,30.21,29.66,15,5,17,0.00
2012-12-10,33.1,30.6,26.3,30.6,27.5,20.1,96,88,77,29.89,29.59,10,5,12,0.02
2012-12-11,33.4,27.2,20.3,28.9,22.2,16.6,89,81,72,30.08,29.87,8,2,10,0.01
2012-12-12,39.0,33.9,30.1,32.8,28.7,26.1,91,81,72,30.30,30.07,4,1,7,0.02
2012-12-13,43.0,35.2,30.0,31.6,27.8,25.0,82,74,62,30.30,30.08,3,2,6,0.01
2012-12-14,41.4,35.5,31.0,33.8,30.8,27.6,92,83,72,30.24,30.11,6,2,9,0.00
2012-12-15,42.0,36.3,31.3,40.7,34.2,29.5,95,92,87,30.16,29.61,13,7,16,0.29
2012-12-16,48.6,45.6,41.7,46.8,43.5,39.8,100,93,84,29.61,29.53,6,2,11,0.07
2012-12-17,41.6,39.2,33.4,39.7,35.4,30.2,93,86,79,29.70,29.61,8,2,11,0.00
2012-12-18,38.5,34.0,30.9,31.8,30.3,28.3,94,87,73,29.75,29.64,9,3,12,0.00
2012-12-19,38.3,34.4,31.6,35.9,32.7,30.1,95,93,89,30.11,29.74,6,1,7,0.04
2012-12-20,43.3,37.6,33.2,41.9,35.9,31.5,95,93,90,30.06,29.09,18,8,21,0.95
2012-12-21,39.1,32.5,28.6,36.4,28.4,24.4,94,85,74,29.91,29.13,21,14,31,0.08
2012-12-22,33.6,30.4,28.0,26.7,24.4,22.4,92,78,70,30.07,29.91,19,9,25,0.00
2012-12-23,31.9,27.4,24.0,26.9,22.8,18.6,90,83,72,30.05,29.86,10,4,12,0.00
2012-12-24,28.8,25.6,21.6,23.7,20.9,17.3,86,82,77,30.03,29.88,9,4,12,0.00
2012-12-25,31.2,25.6,21.8,22.0,20.2,17.8,91,80,62,30.36,30.04,10,4,11,0.00
2012-12-26,28.9,26.8,23.3,25.9,22.9,20.2,90,85,77,30.32,29.98,17,11,21,0.00
2012-12-27,28.8,24.5,21.8,21.9,19.9,17.6,95,83,69,30.17,29.98,11,5,13,0.00
2012-12-28,28.8,23.9,16.7,23.2,19.8,13.6,91,84,75,30.17,29.97,5,2,6,0.00
2012-12-29,29.9,25.8,21.9,25.0,21.9,17.8,92,85,77,30.06,29.85,11,4,14,0.00
2012-12-30,29.0,26.3,23.0,24.7,22.5,18.9,90,85,77,30.26,30.06,9,3,13,0.00
2012-12-31,35.4,28.6,23.3,29.8,23.6,16.4,87,81,70,30.11,29.87,12,5,16,0.00
2013-1-1,24.4,21.7,18.1,17.5,13.8,11.9,82,71,61,30.16,30.03,10,6,14,0.00